sensor_id;sensor_type;location;lat;lon;timestamp;P1;durP1;ratioP1;P2;durP2;ratioP2
10795;SDS011;5450;42.994;23.372;2022-09-28T00:03:05;3.37;;;1.77;;
10795;SDS011;5450;42.994;23.372;2022-09-28T00:05:48;1.60;;;1.50;;
10795;SDS011;5450;42.994;23.372;2022-09-28T00:08:44;1.90;;;1.80;;
10795;SDS011;5450;42.994;23.372;2022-09-28T00:11:26;1.83;;;1.73;;
10795;SDS011;5450;42.994;23.372;2022-09-28T00:14:14;1.87;;;1.77;;
10795;SDS011;5450;42.994;23.372;2022-09-28T00:16:53;1.87;;;1.77;;
10795;SDS011;5450;42.994;23.372;2022-09-28T00:19:24;2.80;;;1.90;;
10795;SDS011;5450;42.994;23.372;2022-09-28T00:21:54;1.50;;;1.40;;
10795;SDS011;5450;42.994;23.372;2022-09-28T00:24:30;3.43;;;1.80;;
10795;SDS011;5450;42.994;23.372;2022-09-28T00:27:01;1.80;;;1.70;;
10795;SDS011;5450;42.994;23.372;2022-09-28T00:29:32;1.60;;;1.50;;
10795;SDS011;5450;42.994;23.372;2022-09-28T00:32:11;6.03;;;1.60;;
10795;SDS011;5450;42.994;23.372;2022-09-28T00:34:41;1.37;;;1.27;;
10795;SDS011;5450;42.994;23.372;2022-09-28T00:37:22;3.20;;;1.50;;
10795;SDS011;5450;42.994;23.372;2022-09-28T00:39:52;3.37;;;1.50;;
10795;SDS011;5450;42.994;23.372;2022-09-28T00:42:30;2.97;;;1.60;;
10795;SDS011;5450;42.994;23.372;2022-09-28T00:45:00;1.50;;;1.40;;
10795;SDS011;5450;42.994;23.372;2022-09-28T00:47:44;2.53;;;1.87;;
10795;SDS011;5450;42.994;23.372;2022-09-28T00:50:32;1.73;;;1.60;;
10795;SDS011;5450;42.994;23.372;2022-09-28T00:53:10;1.60;;;1.50;;
10795;SDS011;5450;42.994;23.372;2022-09-28T00:55:43;1.70;;;1.60;;
10795;SDS011;5450;42.994;23.372;2022-09-28T00:58:16;1.63;;;1.53;;
10795;SDS011;5450;42.994;23.372;2022-09-28T01:00:47;1.40;;;1.30;;
10795;SDS011;5450;42.994;23.372;2022-09-28T01:06:29;1.67;;;1.60;;
10795;SDS011;5450;42.994;23.372;2022-09-28T01:09:04;1.90;;;1.60;;
10795;SDS011;5450;42.994;23.372;2022-09-28T01:11:37;1.40;;;1.30;;
10795;SDS011;5450;42.994;23.372;2022-09-28T01:14:22;2.70;;;1.70;;
10795;SDS011;5450;42.994;23.372;2022-09-28T01:17:01;3.50;;;2.00;;
10795;SDS011;5450;42.994;23.372;2022-09-28T01:22:54;2.03;;;1.93;;
10795;SDS011;5450;42.994;23.372;2022-09-28T01:25:50;2.37;;;2.13;;
10795;SDS011;5450;42.994;23.372;2022-09-28T01:28:23;2.00;;;1.90;;
10795;SDS011;5450;42.994;23.372;2022-09-28T01:30:57;1.93;;;1.83;;
10795;SDS011;5450;42.994;23.372;2022-09-28T01:33:41;1.77;;;1.63;;
10795;SDS011;5450;42.994;23.372;2022-09-28T01:36:27;1.93;;;1.83;;
10795;SDS011;5450;42.994;23.372;2022-09-28T01:45:14;2.53;;;1.97;;
10795;SDS011;5450;42.994;23.372;2022-09-28T01:48:37;3.33;;;2.10;;
10795;SDS011;5450;42.994;23.372;2022-09-28T01:51:35;2.20;;;2.00;;
10795;SDS011;5450;42.994;23.372;2022-09-28T01:54:20;2.23;;;2.07;;
10795;SDS011;5450;42.994;23.372;2022-09-28T01:57:03;2.00;;;1.90;;
10795;SDS011;5450;42.994;23.372;2022-09-28T01:59:48;2.00;;;1.90;;
10795;SDS011;5450;42.994;23.372;2022-09-28T02:02:29;2.73;;;1.50;;
10795;SDS011;5450;42.994;23.372;2022-09-28T02:05:10;1.90;;;1.80;;
10795;SDS011;5450;42.994;23.372;2022-09-28T02:07:54;1.93;;;1.83;;
10795;SDS011;5450;42.994;23.372;2022-09-28T02:10:40;2.20;;;2.00;;
10795;SDS011;5450;42.994;23.372;2022-09-28T02:13:23;3.67;;;1.70;;
10795;SDS011;5450;42.994;23.372;2022-09-28T02:16:02;2.00;;;1.80;;
10795;SDS011;5450;42.994;23.372;2022-09-28T02:19:00;2.50;;;1.60;;
10795;SDS011;5450;42.994;23.372;2022-09-28T02:21:34;2.27;;;2.17;;
10795;SDS011;5450;42.994;23.372;2022-09-28T02:24:09;1.87;;;1.77;;
10795;SDS011;5450;42.994;23.372;2022-09-28T02:26:41;2.30;;;1.73;;
10795;SDS011;5450;42.994;23.372;2022-09-28T02:29:14;1.40;;;1.40;;
10795;SDS011;5450;42.994;23.372;2022-09-28T02:31:41;2.10;;;2.00;;
10795;SDS011;5450;42.994;23.372;2022-09-28T02:34:10;1.97;;;1.87;;
10795;SDS011;5450;42.994;23.372;2022-09-28T02:36:42;1.63;;;1.53;;
10795;SDS011;5450;42.994;23.372;2022-09-28T02:39:27;1.70;;;1.60;;
10795;SDS011;5450;42.994;23.372;2022-09-28T02:45:14;1.90;;;1.80;;
10795;SDS011;5450;42.994;23.372;2022-09-28T02:47:55;1.70;;;1.60;;
10795;SDS011;5450;42.994;23.372;2022-09-28T02:53:45;1.90;;;1.80;;
10795;SDS011;5450;42.994;23.372;2022-09-28T02:56:34;6.70;;;2.17;;
10795;SDS011;5450;42.994;23.372;2022-09-28T02:59:17;3.03;;;1.80;;
10795;SDS011;5450;42.994;23.372;2022-09-28T03:01:58;1.83;;;1.73;;
10795;SDS011;5450;42.994;23.372;2022-09-28T03:04:35;2.93;;;2.67;;
10795;SDS011;5450;42.994;23.372;2022-09-28T03:07:15;2.53;;;2.33;;
10795;SDS011;5450;42.994;23.372;2022-09-28T03:09:53;2.83;;;2.63;;
10795;SDS011;5450;42.994;23.372;2022-09-28T03:12:27;2.80;;;2.70;;
10795;SDS011;5450;42.994;23.372;2022-09-28T03:15:05;2.50;;;2.40;;
10795;SDS011;5450;42.994;23.372;2022-09-28T03:17:36;3.00;;;2.80;;
10795;SDS011;5450;42.994;23.372;2022-09-28T03:20:04;2.13;;;2.03;;
10795;SDS011;5450;42.994;23.372;2022-09-28T03:22:33;2.83;;;2.67;;
10795;SDS011;5450;42.994;23.372;2022-09-28T03:25:02;2.60;;;2.40;;
10795;SDS011;5450;42.994;23.372;2022-09-28T03:27:37;2.20;;;2.00;;
10795;SDS011;5450;42.994;23.372;2022-09-28T03:33:10;2.37;;;2.20;;
10795;SDS011;5450;42.994;23.372;2022-09-28T03:39:25;2.20;;;2.10;;
10795;SDS011;5450;42.994;23.372;2022-09-28T03:41:52;2.37;;;2.20;;
10795;SDS011;5450;42.994;23.372;2022-09-28T03:44:19;2.53;;;2.33;;
10795;SDS011;5450;42.994;23.372;2022-09-28T03:46:47;3.10;;;1.87;;
10795;SDS011;5450;42.994;23.372;2022-09-28T03:49:16;3.83;;;2.10;;
10795;SDS011;5450;42.994;23.372;2022-09-28T03:51:45;2.10;;;2.00;;
10795;SDS011;5450;42.994;23.372;2022-09-28T03:54:14;1.93;;;1.83;;
10795;SDS011;5450;42.994;23.372;2022-09-28T03:56:47;2.60;;;2.23;;
10795;SDS011;5450;42.994;23.372;2022-09-28T03:59:16;4.30;;;2.63;;
10795;SDS011;5450;42.994;23.372;2022-09-28T04:01:43;2.17;;;2.07;;
10795;SDS011;5450;42.994;23.372;2022-09-28T04:07:03;4.30;;;2.17;;
10795;SDS011;5450;42.994;23.372;2022-09-28T04:09:31;2.90;;;2.40;;
10795;SDS011;5450;42.994;23.372;2022-09-28T04:12:01;2.07;;;1.97;;
10795;SDS011;5450;42.994;23.372;2022-09-28T04:14:28;1.60;;;1.57;;
10795;SDS011;5450;42.994;23.372;2022-09-28T04:16:55;2.07;;;1.90;;
10795;SDS011;5450;42.994;23.372;2022-09-28T04:19:22;2.20;;;1.87;;
10795;SDS011;5450;42.994;23.372;2022-09-28T04:21:51;2.37;;;2.17;;
10795;SDS011;5450;42.994;23.372;2022-09-28T04:28:01;2.57;;;2.10;;
10795;SDS011;5450;42.994;23.372;2022-09-28T04:30:47;2.63;;;2.43;;
10795;SDS011;5450;42.994;23.372;2022-09-28T04:33:14;2.73;;;2.53;;
10795;SDS011;5450;42.994;23.372;2022-09-28T04:35:46;2.63;;;2.43;;
10795;SDS011;5450;42.994;23.372;2022-09-28T04:38:13;2.43;;;2.03;;
10795;SDS011;5450;42.994;23.372;2022-09-28T04:40:40;3.70;;;2.47;;
10795;SDS011;5450;42.994;23.372;2022-09-28T04:43:09;2.63;;;2.43;;
10795;SDS011;5450;42.994;23.372;2022-09-28T04:45:36;2.50;;;2.30;;
10795;SDS011;5450;42.994;23.372;2022-09-28T04:48:05;2.90;;;2.70;;
10795;SDS011;5450;42.994;23.372;2022-09-28T04:50:32;2.80;;;2.60;;
10795;SDS011;5450;42.994;23.372;2022-09-28T04:53:00;2.53;;;2.43;;
10795;SDS011;5450;42.994;23.372;2022-09-28T04:55:27;2.90;;;2.60;;
10795;SDS011;5450;42.994;23.372;2022-09-28T04:57:56;2.97;;;2.43;;
10795;SDS011;5450;42.994;23.372;2022-09-28T05:04:10;2.73;;;2.63;;
10795;SDS011;5450;42.994;23.372;2022-09-28T05:06:37;6.33;;;2.20;;
10795;SDS011;5450;42.994;23.372;2022-09-28T05:12:46;2.80;;;2.60;;
10795;SDS011;5450;42.994;23.372;2022-09-28T05:27:34;2.80;;;2.10;;
10795;SDS011;5450;42.994;23.372;2022-09-28T05:30:03;2.50;;;1.87;;
10795;SDS011;5450;42.994;23.372;2022-09-28T05:39:52;2.60;;;2.40;;
10795;SDS011;5450;42.994;23.372;2022-09-28T05:42:21;2.90;;;2.70;;
10795;SDS011;5450;42.994;23.372;2022-09-28T05:44:48;5.10;;;2.50;;
10795;SDS011;5450;42.994;23.372;2022-09-28T05:47:17;2.53;;;2.43;;
10795;SDS011;5450;42.994;23.372;2022-09-28T05:56:43;2.93;;;2.20;;
10795;SDS011;5450;42.994;23.372;2022-09-28T06:02:04;3.57;;;2.00;;
10795;SDS011;5450;42.994;23.372;2022-09-28T06:04:35;2.27;;;2.17;;
10795;SDS011;5450;42.994;23.372;2022-09-28T06:14:02;3.00;;;1.80;;
10795;SDS011;5450;42.994;23.372;2022-09-28T06:16:31;2.30;;;2.20;;
10795;SDS011;5450;42.994;23.372;2022-09-28T06:19:02;3.03;;;2.30;;
10795;SDS011;5450;42.994;23.372;2022-09-28T06:21:30;2.23;;;2.13;;
10795;SDS011;5450;42.994;23.372;2022-09-28T06:23:59;2.00;;;1.90;;
10795;SDS011;5450;42.994;23.372;2022-09-28T06:26:28;2.17;;;2.07;;
10795;SDS011;5450;42.994;23.372;2022-09-28T06:28:55;2.60;;;2.00;;
10795;SDS011;5450;42.994;23.372;2022-09-28T06:31:24;2.70;;;2.13;;
10795;SDS011;5450;42.994;23.372;2022-09-28T06:33:57;2.47;;;2.27;;
10795;SDS011;5450;42.994;23.372;2022-09-28T06:36:27;2.50;;;2.30;;
10795;SDS011;5450;42.994;23.372;2022-09-28T06:38:55;3.13;;;2.27;;
10795;SDS011;5450;42.994;23.372;2022-09-28T06:41:22;2.00;;;1.90;;
10795;SDS011;5450;42.994;23.372;2022-09-28T06:43:49;2.30;;;2.10;;
10795;SDS011;5450;42.994;23.372;2022-09-28T06:46:19;2.20;;;2.10;;
10795;SDS011;5450;42.994;23.372;2022-09-28T06:48:48;2.57;;;2.23;;
10795;SDS011;5450;42.994;23.372;2022-09-28T06:51:18;3.20;;;3.00;;
10795;SDS011;5450;42.994;23.372;2022-09-28T06:53:45;2.50;;;2.40;;
10795;SDS011;5450;42.994;23.372;2022-09-28T06:56:12;2.93;;;2.73;;
10795;SDS011;5450;42.994;23.372;2022-09-28T06:58:39;2.40;;;2.30;;
10795;SDS011;5450;42.994;23.372;2022-09-28T07:01:06;1.90;;;1.80;;
10795;SDS011;5450;42.994;23.372;2022-09-28T07:03:36;1.97;;;1.87;;
10795;SDS011;5450;42.994;23.372;2022-09-28T07:06:04;2.07;;;1.80;;
10795;SDS011;5450;42.994;23.372;2022-09-28T07:08:33;2.23;;;2.10;;
10795;SDS011;5450;42.994;23.372;2022-09-28T07:11:00;2.10;;;2.00;;
10795;SDS011;5450;42.994;23.372;2022-09-28T07:13:31;2.00;;;1.90;;
10795;SDS011;5450;42.994;23.372;2022-09-28T07:15:58;2.40;;;2.00;;
10795;SDS011;5450;42.994;23.372;2022-09-28T07:18:25;2.70;;;2.50;;
10795;SDS011;5450;42.994;23.372;2022-09-28T07:20:54;4.07;;;2.37;;
10795;SDS011;5450;42.994;23.372;2022-09-28T07:23:23;2.50;;;2.40;;
10795;SDS011;5450;42.994;23.372;2022-09-28T07:25:54;2.37;;;2.20;;
10795;SDS011;5450;42.994;23.372;2022-09-28T07:28:22;2.93;;;2.63;;
10795;SDS011;5450;42.994;23.372;2022-09-28T07:30:51;2.50;;;2.30;;
10795;SDS011;5450;42.994;23.372;2022-09-28T07:33:19;3.03;;;2.10;;
10795;SDS011;5450;42.994;23.372;2022-09-28T07:35:51;2.70;;;2.50;;
10795;SDS011;5450;42.994;23.372;2022-09-28T07:38:20;3.00;;;2.80;;
10795;SDS011;5450;42.994;23.372;2022-09-28T07:40:47;3.03;;;2.63;;
10795;SDS011;5450;42.994;23.372;2022-09-28T07:43:35;2.53;;;2.33;;
10795;SDS011;5450;42.994;23.372;2022-09-28T07:46:03;3.37;;;2.60;;
10795;SDS011;5450;42.994;23.372;2022-09-28T07:48:39;4.63;;;2.63;;
10795;SDS011;5450;42.994;23.372;2022-09-28T07:51:07;3.20;;;3.00;;
10795;SDS011;5450;42.994;23.372;2022-09-28T07:53:36;2.60;;;2.50;;
10795;SDS011;5450;42.994;23.372;2022-09-28T07:56:05;4.60;;;3.03;;
10795;SDS011;5450;42.994;23.372;2022-09-28T07:58:37;3.23;;;3.03;;
10795;SDS011;5450;42.994;23.372;2022-09-28T08:01:05;3.50;;;3.20;;
10795;SDS011;5450;42.994;23.372;2022-09-28T08:03:34;3.60;;;3.40;;
10795;SDS011;5450;42.994;23.372;2022-09-28T08:06:03;2.90;;;2.70;;
10795;SDS011;5450;42.994;23.372;2022-09-28T08:08:32;2.77;;;2.57;;
10795;SDS011;5450;42.994;23.372;2022-09-28T08:11:01;2.50;;;1.93;;
10795;SDS011;5450;42.994;23.372;2022-09-28T08:13:36;1.93;;;1.83;;
10795;SDS011;5450;42.994;23.372;2022-09-28T08:16:06;2.50;;;2.33;;
10795;SDS011;5450;42.994;23.372;2022-09-28T08:18:33;2.07;;;1.93;;
10795;SDS011;5450;42.994;23.372;2022-09-28T08:21:01;2.33;;;2.23;;
10795;SDS011;5450;42.994;23.372;2022-09-28T08:23:46;2.27;;;2.00;;
10795;SDS011;5450;42.994;23.372;2022-09-28T08:29:13;2.20;;;2.10;;
10795;SDS011;5450;42.994;23.372;2022-09-28T08:31:41;2.63;;;2.43;;
10795;SDS011;5450;42.994;23.372;2022-09-28T08:34:08;3.80;;;2.73;;
10795;SDS011;5450;42.994;23.372;2022-09-28T08:36:38;3.23;;;2.60;;
10795;SDS011;5450;42.994;23.372;2022-09-28T08:39:05;3.33;;;2.53;;
10795;SDS011;5450;42.994;23.372;2022-09-28T08:41:34;3.27;;;2.23;;
10795;SDS011;5450;42.994;23.372;2022-09-28T08:44:15;3.30;;;2.30;;
10795;SDS011;5450;42.994;23.372;2022-09-28T08:46:48;2.93;;;2.60;;
10795;SDS011;5450;42.994;23.372;2022-09-28T08:49:19;4.27;;;2.73;;
10795;SDS011;5450;42.994;23.372;2022-09-28T08:51:54;3.10;;;2.83;;
10795;SDS011;5450;42.994;23.372;2022-09-28T08:54:31;4.30;;;2.57;;
10795;SDS011;5450;42.994;23.372;2022-09-28T08:57:04;2.97;;;2.73;;
10795;SDS011;5450;42.994;23.372;2022-09-28T08:59:42;3.10;;;2.90;;
10795;SDS011;5450;42.994;23.372;2022-09-28T09:02:14;2.97;;;2.73;;
10795;SDS011;5450;42.994;23.372;2022-09-28T09:04:46;2.93;;;2.70;;
10795;SDS011;5450;42.994;23.372;2022-09-28T09:07:20;2.53;;;2.43;;
10795;SDS011;5450;42.994;23.372;2022-09-28T09:10:00;1.97;;;1.87;;
10795;SDS011;5450;42.994;23.372;2022-09-28T09:12:40;2.10;;;2.00;;
10795;SDS011;5450;42.994;23.372;2022-09-28T09:15:20;2.67;;;1.87;;
10795;SDS011;5450;42.994;23.372;2022-09-28T09:18:11;2.17;;;2.00;;
10795;SDS011;5450;42.994;23.372;2022-09-28T09:20:49;1.53;;;1.43;;
10795;SDS011;5450;42.994;23.372;2022-09-28T09:23:22;2.27;;;1.83;;
10795;SDS011;5450;42.994;23.372;2022-09-28T09:26:02;1.80;;;1.70;;
10795;SDS011;5450;42.994;23.372;2022-09-28T09:28:41;1.83;;;1.73;;
10795;SDS011;5450;42.994;23.372;2022-09-28T09:31:49;1.83;;;1.73;;
10795;SDS011;5450;42.994;23.372;2022-09-28T09:34:31;1.93;;;1.80;;
10795;SDS011;5450;42.994;23.372;2022-09-28T09:37:12;1.60;;;1.50;;
10795;SDS011;5450;42.994;23.372;2022-09-28T09:39:52;2.20;;;1.60;;
10795;SDS011;5450;42.994;23.372;2022-09-28T09:42:36;3.13;;;1.47;;
10795;SDS011;5450;42.994;23.372;2022-09-28T09:45:30;1.87;;;1.53;;
10795;SDS011;5450;42.994;23.372;2022-09-28T09:48:16;4.73;;;1.53;;
10795;SDS011;5450;42.994;23.372;2022-09-28T09:50:50;1.77;;;1.30;;
10795;SDS011;5450;42.994;23.372;2022-09-28T09:53:22;2.67;;;1.67;;
10795;SDS011;5450;42.994;23.372;2022-09-28T09:55:57;2.30;;;1.30;;
10795;SDS011;5450;42.994;23.372;2022-09-28T09:58:30;2.50;;;1.20;;
10795;SDS011;5450;42.994;23.372;2022-09-28T10:01:04;2.10;;;1.50;;
10795;SDS011;5450;42.994;23.372;2022-09-28T10:06:43;1.40;;;1.30;;
10795;SDS011;5450;42.994;23.372;2022-09-28T10:09:12;1.20;;;1.17;;
10795;SDS011;5450;42.994;23.372;2022-09-28T10:11:46;1.20;;;1.10;;
10795;SDS011;5450;42.994;23.372;2022-09-28T10:14:14;2.55;;;1.30;;
10795;SDS011;5450;42.994;23.372;2022-09-28T10:20:10;1.10;;;1.10;;
10795;SDS011;5450;42.994;23.372;2022-09-28T10:22:43;1.27;;;1.17;;
10795;SDS011;5450;42.994;23.372;2022-09-28T10:25:13;1.33;;;1.10;;
10795;SDS011;5450;42.994;23.372;2022-09-28T10:27:42;1.37;;;1.13;;
10795;SDS011;5450;42.994;23.372;2022-09-28T10:30:17;1.77;;;1.20;;
10795;SDS011;5450;42.994;23.372;2022-09-28T10:32:50;1.65;;;1.08;;
10795;SDS011;5450;42.994;23.372;2022-09-28T10:35:25;1.37;;;1.27;;
10795;SDS011;5450;42.994;23.372;2022-09-28T10:37:55;1.40;;;1.17;;
10795;SDS011;5450;42.994;23.372;2022-09-28T10:40:32;2.63;;;1.37;;
10795;SDS011;5450;42.994;23.372;2022-09-28T10:43:15;2.50;;;1.00;;
10795;SDS011;5450;42.994;23.372;2022-09-28T10:45:45;2.30;;;1.37;;
10795;SDS011;5450;42.994;23.372;2022-09-28T10:48:15;1.23;;;1.23;;
10795;SDS011;5450;42.994;23.372;2022-09-28T10:54:28;1.27;;;1.23;;
10795;SDS011;5450;42.994;23.372;2022-09-28T10:56:58;2.20;;;1.40;;
10795;SDS011;5450;42.994;23.372;2022-09-28T10:59:36;2.07;;;1.40;;
10795;SDS011;5450;42.994;23.372;2022-09-28T11:02:17;1.50;;;1.40;;
10795;SDS011;5450;42.994;23.372;2022-09-28T11:04:51;1.60;;;1.50;;
10795;SDS011;5450;42.994;23.372;2022-09-28T11:07:21;1.20;;;1.10;;
10795;SDS011;5450;42.994;23.372;2022-09-28T11:09:53;1.57;;;1.23;;
10795;SDS011;5450;42.994;23.372;2022-09-28T11:12:23;2.83;;;1.23;;
10795;SDS011;5450;42.994;23.372;2022-09-28T11:14:56;1.40;;;1.30;;
10795;SDS011;5450;42.994;23.372;2022-09-28T11:17:27;1.43;;;1.33;;
10795;SDS011;5450;42.994;23.372;2022-09-28T11:19:57;1.30;;;1.20;;
10795;SDS011;5450;42.994;23.372;2022-09-28T11:22:26;2.20;;;1.47;;
10795;SDS011;5450;42.994;23.372;2022-09-28T11:25:17;1.97;;;1.87;;
10795;SDS011;5450;42.994;23.372;2022-09-28T11:27:59;1.97;;;1.30;;
10795;SDS011;5450;42.994;23.372;2022-09-28T11:40:46;1.63;;;1.40;;
10795;SDS011;5450;42.994;23.372;2022-09-28T11:43:25;1.13;;;1.13;;
10795;SDS011;5450;42.994;23.372;2022-09-28T11:46:16;1.33;;;1.20;;
10795;SDS011;5450;42.994;23.372;2022-09-28T11:48:52;1.10;;;1.10;;
10795;SDS011;5450;42.994;23.372;2022-09-28T11:51:22;1.03;;;1.03;;
10795;SDS011;5450;42.994;23.372;2022-09-28T11:53:54;1.23;;;0.90;;
10795;SDS011;5450;42.994;23.372;2022-09-28T11:56:30;3.17;;;2.97;;
10795;SDS011;5450;42.994;23.372;2022-09-28T12:02:14;1.00;;;0.90;;
10795;SDS011;5450;42.994;23.372;2022-09-28T12:04:47;0.90;;;0.90;;
10795;SDS011;5450;42.994;23.372;2022-09-28T12:16:37;1.23;;;1.23;;
10795;SDS011;5450;42.994;23.372;2022-09-28T12:19:12;2.47;;;1.17;;
10795;SDS011;5450;42.994;23.372;2022-09-28T12:21:47;4.68;;;1.20;;
10795;SDS011;5450;42.994;23.372;2022-09-28T12:24:17;1.25;;;1.13;;
10795;SDS011;5450;42.994;23.372;2022-09-28T12:26:47;1.52;;;0.90;;
10795;SDS011;5450;42.994;23.372;2022-09-28T12:32:19;0.98;;;0.98;;
10795;SDS011;5450;42.994;23.372;2022-09-28T12:34:59;1.30;;;0.90;;
10795;SDS011;5450;42.994;23.372;2022-09-28T12:37:34;1.00;;;1.00;;
10795;SDS011;5450;42.994;23.372;2022-09-28T12:40:24;0.90;;;0.90;;
10795;SDS011;5450;42.994;23.372;2022-09-28T12:43:17;1.33;;;1.23;;
10795;SDS011;5450;42.994;23.372;2022-09-28T12:46:06;1.40;;;1.30;;
10795;SDS011;5450;42.994;23.372;2022-09-28T12:48:55;1.30;;;1.30;;
10795;SDS011;5450;42.994;23.372;2022-09-28T12:51:44;1.43;;;1.33;;
10795;SDS011;5450;42.994;23.372;2022-09-28T12:54:18;1.50;;;1.37;;
10795;SDS011;5450;42.994;23.372;2022-09-28T12:57:06;2.30;;;1.30;;
10795;SDS011;5450;42.994;23.372;2022-09-28T12:59:52;2.00;;;1.10;;
10795;SDS011;5450;42.994;23.372;2022-09-28T13:02:33;1.90;;;1.57;;
10795;SDS011;5450;42.994;23.372;2022-09-28T13:05:23;3.03;;;2.83;;
10795;SDS011;5450;42.994;23.372;2022-09-28T13:11:32;4.27;;;4.07;;
10795;SDS011;5450;42.994;23.372;2022-09-28T13:14:13;3.07;;;2.83;;
10795;SDS011;5450;42.994;23.372;2022-09-28T13:20:10;5.13;;;2.93;;
10795;SDS011;5450;42.994;23.372;2022-09-28T13:22:49;4.80;;;3.20;;
10795;SDS011;5450;42.994;23.372;2022-09-28T13:25:22;3.40;;;3.20;;
10795;SDS011;5450;42.994;23.372;2022-09-28T13:27:54;2.37;;;2.23;;
10795;SDS011;5450;42.994;23.372;2022-09-28T13:30:32;2.70;;;2.50;;
10795;SDS011;5450;42.994;23.372;2022-09-28T13:33:16;2.80;;;2.60;;
10795;SDS011;5450;42.994;23.372;2022-09-28T13:35:49;3.17;;;2.30;;
10795;SDS011;5450;42.994;23.372;2022-09-28T13:38:28;2.30;;;2.10;;
10795;SDS011;5450;42.994;23.372;2022-09-28T13:41:17;2.07;;;1.77;;
10795;SDS011;5450;42.994;23.372;2022-09-28T13:44:24;1.77;;;1.67;;
10795;SDS011;5450;42.994;23.372;2022-09-28T13:47:06;1.70;;;1.60;;
10795;SDS011;5450;42.994;23.372;2022-09-28T13:49:52;1.27;;;1.27;;
10795;SDS011;5450;42.994;23.372;2022-09-28T13:52:38;1.73;;;1.60;;
10795;SDS011;5450;42.994;23.372;2022-09-28T13:55:13;1.90;;;1.80;;
10795;SDS011;5450;42.994;23.372;2022-09-28T13:57:51;2.87;;;1.70;;
10795;SDS011;5450;42.994;23.372;2022-09-28T14:00:24;2.00;;;1.60;;
10795;SDS011;5450;42.994;23.372;2022-09-28T14:02:56;1.80;;;1.70;;
10795;SDS011;5450;42.994;23.372;2022-09-28T14:05:51;2.80;;;1.57;;
10795;SDS011;5450;42.994;23.372;2022-09-28T14:08:36;1.90;;;1.60;;
10795;SDS011;5450;42.994;23.372;2022-09-28T14:11:22;2.40;;;1.60;;
10795;SDS011;5450;42.994;23.372;2022-09-28T14:20:28;1.73;;;1.57;;
10795;SDS011;5450;42.994;23.372;2022-09-28T14:23:15;3.47;;;3.37;;
10795;SDS011;5450;42.994;23.372;2022-09-28T14:26:02;2.10;;;2.00;;
10795;SDS011;5450;42.994;23.372;2022-09-28T14:28:47;2.67;;;2.23;;
10795;SDS011;5450;42.994;23.372;2022-09-28T14:31:27;2.47;;;2.27;;
10795;SDS011;5450;42.994;23.372;2022-09-28T14:33:59;1.70;;;1.60;;
10795;SDS011;5450;42.994;23.372;2022-09-28T14:36:31;21.33;;;19.43;;
10795;SDS011;5450;42.994;23.372;2022-09-28T14:39:25;6.40;;;5.90;;
10795;SDS011;5450;42.994;23.372;2022-09-28T14:42:14;3.77;;;3.50;;
10795;SDS011;5450;42.994;23.372;2022-09-28T14:50:40;2.03;;;1.93;;
10795;SDS011;5450;42.994;23.372;2022-09-28T14:53:11;3.77;;;2.70;;
10795;SDS011;5450;42.994;23.372;2022-09-28T14:55:49;2.63;;;2.53;;
10795;SDS011;5450;42.994;23.372;2022-09-28T14:58:22;2.77;;;2.60;;
10795;SDS011;5450;42.994;23.372;2022-09-28T15:00:54;5.20;;;1.80;;
10795;SDS011;5450;42.994;23.372;2022-09-28T15:03:26;3.83;;;2.43;;
10795;SDS011;5450;42.994;23.372;2022-09-28T15:05:58;3.00;;;2.80;;
10795;SDS011;5450;42.994;23.372;2022-09-28T15:08:34;4.17;;;3.73;;
10795;SDS011;5450;42.994;23.372;2022-09-28T15:11:05;3.43;;;3.23;;
10795;SDS011;5450;42.994;23.372;2022-09-28T15:13:39;2.43;;;2.10;;
10795;SDS011;5450;42.994;23.372;2022-09-28T15:16:08;1.73;;;1.63;;
10795;SDS011;5450;42.994;23.372;2022-09-28T15:18:51;2.50;;;1.30;;
10795;SDS011;5450;42.994;23.372;2022-09-28T15:21:43;1.80;;;1.67;;
10795;SDS011;5450;42.994;23.372;2022-09-28T15:24:22;1.50;;;1.50;;
10795;SDS011;5450;42.994;23.372;2022-09-28T15:26:53;1.90;;;1.63;;
10795;SDS011;5450;42.994;23.372;2022-09-28T15:32:23;2.30;;;2.20;;
10795;SDS011;5450;42.994;23.372;2022-09-28T15:34:51;3.73;;;2.30;;
10795;SDS011;5450;42.994;23.372;2022-09-28T15:37:19;3.97;;;2.40;;
10795;SDS011;5450;42.994;23.372;2022-09-28T15:39:50;3.33;;;3.03;;
10795;SDS011;5450;42.994;23.372;2022-09-28T15:42:20;4.83;;;3.73;;
10795;SDS011;5450;42.994;23.372;2022-09-28T15:45:02;4.10;;;3.67;;
10795;SDS011;5450;42.994;23.372;2022-09-28T15:47:50;2.87;;;1.77;;
10795;SDS011;5450;42.994;23.372;2022-09-28T15:50:44;2.27;;;2.17;;
10795;SDS011;5450;42.994;23.372;2022-09-28T15:53:35;1.80;;;1.70;;
10795;SDS011;5450;42.994;23.372;2022-09-28T15:56:06;1.47;;;1.43;;
10795;SDS011;5450;42.994;23.372;2022-09-28T15:58:37;2.37;;;1.73;;
10795;SDS011;5450;42.994;23.372;2022-09-28T16:07:04;3.87;;;2.23;;
10795;SDS011;5450;42.994;23.372;2022-09-28T16:09:54;2.33;;;2.23;;
10795;SDS011;5450;42.994;23.372;2022-09-28T16:12:24;4.33;;;3.00;;
10795;SDS011;5450;42.994;23.372;2022-09-28T16:15:01;11.63;;;9.07;;
10795;SDS011;5450;42.994;23.372;2022-09-28T16:17:31;8.00;;;6.37;;
10795;SDS011;5450;42.994;23.372;2022-09-28T16:20:04;9.40;;;8.60;;
10795;SDS011;5450;42.994;23.372;2022-09-28T16:25:54;5.87;;;5.27;;
10795;SDS011;5450;42.994;23.372;2022-09-28T16:31:29;4.33;;;3.27;;
10795;SDS011;5450;42.994;23.372;2022-09-28T16:34:09;3.57;;;3.00;;
10795;SDS011;5450;42.994;23.372;2022-09-28T16:36:44;3.60;;;3.37;;
10795;SDS011;5450;42.994;23.372;2022-09-28T16:39:14;3.57;;;3.20;;
10795;SDS011;5450;42.994;23.372;2022-09-28T16:41:48;3.60;;;3.30;;
10795;SDS011;5450;42.994;23.372;2022-09-28T16:44:20;7.57;;;5.80;;
10795;SDS011;5450;42.994;23.372;2022-09-28T16:46:55;14.57;;;8.93;;
10795;SDS011;5450;42.994;23.372;2022-09-28T16:49:25;12.60;;;9.40;;
10795;SDS011;5450;42.994;23.372;2022-09-28T16:51:52;9.50;;;8.20;;
10795;SDS011;5450;42.994;23.372;2022-09-28T16:54:21;8.70;;;7.70;;
10795;SDS011;5450;42.994;23.372;2022-09-28T16:57:08;8.30;;;4.93;;
10795;SDS011;5450;42.994;23.372;2022-09-28T16:59:37;5.57;;;4.53;;
10795;SDS011;5450;42.994;23.372;2022-09-28T17:02:16;5.77;;;3.77;;
10795;SDS011;5450;42.994;23.372;2022-09-28T17:04:45;4.47;;;3.70;;
10795;SDS011;5450;42.994;23.372;2022-09-28T17:07:12;3.90;;;3.60;;
10795;SDS011;5450;42.994;23.372;2022-09-28T17:09:40;3.70;;;3.40;;
10795;SDS011;5450;42.994;23.372;2022-09-28T17:12:11;5.23;;;3.90;;
10795;SDS011;5450;42.994;23.372;2022-09-28T17:14:42;7.27;;;4.00;;
10795;SDS011;5450;42.994;23.372;2022-09-28T17:17:10;4.60;;;4.20;;
10795;SDS011;5450;42.994;23.372;2022-09-28T17:19:38;5.10;;;4.40;;
10795;SDS011;5450;42.994;23.372;2022-09-28T17:22:06;11.60;;;10.40;;
10795;SDS011;5450;42.994;23.372;2022-09-28T17:24:34;17.57;;;15.97;;
10795;SDS011;5450;42.994;23.372;2022-09-28T17:27:02;9.90;;;9.20;;
10795;SDS011;5450;42.994;23.372;2022-09-28T17:29:31;8.13;;;7.33;;
10795;SDS011;5450;42.994;23.372;2022-09-28T17:31:58;7.47;;;6.50;;
10795;SDS011;5450;42.994;23.372;2022-09-28T17:34:29;5.10;;;4.60;;
10795;SDS011;5450;42.994;23.372;2022-09-28T17:36:57;5.30;;;4.80;;
10795;SDS011;5450;42.994;23.372;2022-09-28T17:39:25;5.77;;;4.83;;
10795;SDS011;5450;42.994;23.372;2022-09-28T17:41:52;5.47;;;4.97;;
10795;SDS011;5450;42.994;23.372;2022-09-28T17:44:20;5.60;;;4.97;;
10795;SDS011;5450;42.994;23.372;2022-09-28T17:46:48;5.30;;;4.80;;
10795;SDS011;5450;42.994;23.372;2022-09-28T17:49:16;6.80;;;4.67;;
10795;SDS011;5450;42.994;23.372;2022-09-28T17:51:43;4.87;;;4.47;;
10795;SDS011;5450;42.994;23.372;2022-09-28T17:54:12;6.47;;;4.87;;
10795;SDS011;5450;42.994;23.372;2022-09-28T17:56:43;4.50;;;4.17;;
10795;SDS011;5450;42.994;23.372;2022-09-28T17:59:11;4.40;;;4.00;;
10795;SDS011;5450;42.994;23.372;2022-09-28T18:01:39;7.57;;;4.53;;
10795;SDS011;5450;42.994;23.372;2022-09-28T18:04:07;5.37;;;4.90;;